createdAt,value
2018-09-03T00:00:50.681Z,70.49
2018-09-03T00:01:50.675Z,70.49
2018-09-03T00:02:50.654Z,71.80
2018-09-03T00:03:50.646Z,71.50
2018-09-03T00:04:50.641Z,71.60
2018-09-03T00:05:50.661Z,71.60
2018-09-03T00:06:50.616Z,72.31
2018-09-03T00:07:50.599Z,72.41
2018-09-03T00:08:50.588Z,72.91
2018-09-03T00:09:50.596Z,72.81
2018-09-03T00:10:50.594Z,72.51
2018-09-03T00:11:50.562Z,72.71
2018-09-03T00:12:50.594Z,72.71
2018-09-03T00:13:50.537Z,72.71
2018-09-03T00:14:50.533Z,72.71
2018-09-03T00:15:50.537Z,72.91
2018-09-03T00:16:50.505Z,72.71
2018-09-03T00:17:50.508Z,72.91
2018-09-03T00:18:50.490Z,72.71
2018-09-03T00:19:50.503Z,72.71
2018-09-03T00:20:50.484Z,72.41
2018-09-03T00:21:50.479Z,71.80
2018-09-03T00:22:50.438Z,73.92
2018-09-03T00:23:50.431Z,72.51
2018-09-03T00:24:50.415Z,72.91
2018-09-03T00:25:50.446Z,73.32
2018-09-03T00:26:50.410Z,72.91
2018-09-03T00:27:50.390Z,72.81
2018-09-03T00:28:50.389Z,72.71
2018-09-03T00:29:50.362Z,73.15
2018-09-03T00:30:50.362Z,73.15
2018-09-03T00:31:50.371Z,72.54
2018-09-03T00:32:50.329Z,72.81
2018-09-03T00:33:50.363Z,73.05
2018-09-03T00:34:50.309Z,73.96
2018-09-03T00:35:50.298Z,73.05
2018-09-03T00:36:50.320Z,72.85
2018-09-03T00:37:50.281Z,72.75
2018-09-03T00:38:50.276Z,72.85
2018-09-03T00:39:50.267Z,73.75
2018-09-03T00:40:50.261Z,73.85
2018-09-03T00:41:50.234Z,73.92
2018-09-03T00:42:50.258Z,73.75
2018-09-03T00:43:50.213Z,73.96
2018-09-03T00:44:50.201Z,73.75
2018-09-03T00:45:50.191Z,73.96
2018-09-03T00:46:50.201Z,74.46
2018-09-03T00:47:50.202Z,73.96
2018-09-03T00:48:50.161Z,73.85
2018-09-03T00:49:50.147Z,73.85
2018-09-03T00:50:50.143Z,73.85
2018-09-03T00:51:50.127Z,73.96
2018-09-03T00:52:50.181Z,74.26
2018-09-03T00:53:50.130Z,74.26
2018-09-03T00:54:50.098Z,74.36
2018-09-03T00:55:50.090Z,73.75
2018-09-03T00:56:50.097Z,73.85
2018-09-03T00:57:50.128Z,74.76
2018-09-03T00:58:50.058Z,75.57
2018-09-03T00:59:50.063Z,75.27
2018-09-03T01:00:50.064Z,74.96
2018-09-03T01:01:50.037Z,74.46
2018-09-03T01:02:50.010Z,74.66
2018-09-03T01:03:50.152Z,75.16
2018-09-03T01:04:49.988Z,74.96
2018-09-03T01:05:49.976Z,75.07
2018-09-03T01:06:49.979Z,74.96
2018-09-03T01:07:49.986Z,74.96
2018-09-03T01:08:50.130Z,74.96
2018-09-03T01:09:49.985Z,75.16
2018-09-03T01:10:49.929Z,75.47
2018-09-03T01:11:49.915Z,75.07
2018-09-03T01:12:49.917Z,75.40
2018-09-03T01:13:50.106Z,75.40
2018-09-03T01:14:49.908Z,75.20
2018-09-03T01:15:49.871Z,75.81
2018-09-03T01:16:49.868Z,75.67
2018-09-03T01:17:49.851Z,76.01
2018-09-03T01:18:49.879Z,76.01
2018-09-03T01:19:49.837Z,76.01
2018-09-03T01:20:49.856Z,76.82
2018-09-03T01:21:49.833Z,76.01
2018-09-03T01:22:49.802Z,76.31
2018-09-03T01:23:49.788Z,76.51
2018-09-03T01:24:49.845Z,76.35
2018-09-03T01:25:49.761Z,76.35
2018-09-03T01:26:49.757Z,76.55
2018-09-03T01:27:49.749Z,76.42
2018-09-03T01:28:49.745Z,76.55
2018-09-03T01:29:49.769Z,76.75
2018-09-03T01:30:49.714Z,76.25
2018-09-03T01:31:49.703Z,75.95
2018-09-03T01:32:49.688Z,76.25
2018-09-03T01:33:49.676Z,76.59
2018-09-03T01:34:49.690Z,76.99
2018-09-03T01:35:49.698Z,76.89
2018-09-03T01:36:49.676Z,77.19
2018-09-03T01:37:49.666Z,77.19
2018-09-03T01:38:49.634Z,76.99
2018-09-03T01:39:49.611Z,77.29
2018-09-03T01:40:49.649Z,77.09
2018-09-03T01:41:49.592Z,76.99
2018-09-03T01:42:49.588Z,76.99
2018-09-03T01:43:49.576Z,77.64
2018-09-03T01:44:49.584Z,77.13
2018-09-03T01:45:49.569Z,78.24
2018-09-03T01:46:49.534Z,77.84
2018-09-03T01:47:49.535Z,78.34
2018-09-03T01:48:49.545Z,77.84
2018-09-03T01:49:49.523Z,77.73
2018-09-03T01:50:49.532Z,78.64
2018-09-03T01:51:49.501Z,78.38
2018-09-03T01:52:49.513Z,78.44
2018-09-03T01:53:49.462Z,78.85
2018-09-03T01:54:49.447Z,79.15
2018-09-03T01:55:49.456Z,78.95
2018-09-03T01:56:49.483Z,79.15
2018-09-03T01:57:49.425Z,79.35
2018-09-03T01:58:49.415Z,79.86
2018-09-03T01:59:49.399Z,79.75
2018-09-03T02:00:49.389Z,79.49
2018-09-03T02:01:49.401Z,79.79
2018-09-03T02:02:49.365Z,79.90
2018-09-03T02:03:49.362Z,80.00
2018-09-03T02:04:49.414Z,79.49
2018-09-03T02:05:49.333Z,79.39
2018-09-03T02:06:49.336Z,80.60
2018-09-03T02:07:49.359Z,81.21
2018-09-03T02:08:49.307Z,81.21
2018-09-03T02:09:49.298Z,81.31
2018-09-03T02:10:49.317Z,81.25
2018-09-03T02:11:49.289Z,81.25
2018-09-03T02:12:49.277Z,81.01
2018-09-03T02:13:49.257Z,81.55
2018-09-03T02:14:49.241Z,81.41
2018-09-03T02:15:49.225Z,81.71
2018-09-03T02:16:49.219Z,81.51
2018-09-03T02:17:49.246Z,81.05
2018-09-03T02:18:49.188Z,81.21
2018-09-03T02:19:49.177Z,81.15
2018-09-03T02:20:49.167Z,81.05
2018-09-03T02:21:49.154Z,81.76
2018-09-03T02:22:49.189Z,81.92
2018-09-03T02:23:49.145Z,81.15
2018-09-03T02:24:49.130Z,81.82
2018-09-03T02:25:49.137Z,81.41
2018-09-03T02:26:49.106Z,81.71
2018-09-03T02:27:49.125Z,82.62
2018-09-03T02:28:49.082Z,80.80
2018-09-03T02:29:49.090Z,81.21
2018-09-03T02:30:49.062Z,82.53
2018-09-03T02:31:49.088Z,82.62
2018-09-03T02:32:49.061Z,82.53
2018-09-03T02:33:49.041Z,82.73
2018-09-03T02:34:49.020Z,81.82
2018-09-03T02:35:49.014Z,83.33
2018-09-03T02:36:48.994Z,81.82
2018-09-03T02:37:49.044Z,81.71
2018-09-03T02:38:48.997Z,83.44
2018-09-03T02:39:49.002Z,82.62
2018-09-03T02:40:48.948Z,81.71
2018-09-03T02:41:48.946Z,82.93
2018-09-03T02:42:48.948Z,82.83
2018-09-03T02:43:48.946Z,82.62
2018-09-03T02:44:48.931Z,82.53
2018-09-03T02:45:48.959Z,81.85
2018-09-03T02:46:48.884Z,82.97
2018-09-03T02:47:48.902Z,83.07
2018-09-03T02:48:48.898Z,82.87
2018-09-03T02:49:48.851Z,82.62
2018-09-03T02:50:48.884Z,82.46
2018-09-03T02:51:48.842Z,83.17
2018-09-03T02:52:48.824Z,83.27
2018-09-03T02:53:48.838Z,83.17
2018-09-03T02:54:48.799Z,82.87
2018-09-03T02:55:48.789Z,83.07
2018-09-03T02:56:48.782Z,83.07
2018-09-03T02:57:48.831Z,82.97
2018-09-03T02:58:48.788Z,83.68
2018-09-03T02:59:48.793Z,83.68
2018-09-03T03:00:48.791Z,83.78
2018-09-03T03:01:48.731Z,82.76
2018-09-03T03:02:48.762Z,83.27
2018-09-03T03:03:48.702Z,83.88
2018-09-03T03:04:48.715Z,83.17
2018-09-03T03:05:48.709Z,83.27
2018-09-03T03:06:48.697Z,83.47
2018-09-03T03:07:48.671Z,83.58
2018-09-03T03:08:48.659Z,84.48
2018-09-03T03:09:48.660Z,84.69
2018-09-03T03:10:48.628Z,83.37
2018-09-03T03:11:48.769Z,83.78
2018-09-03T03:12:48.627Z,83.47
2018-09-03T03:13:48.593Z,83.68
2018-09-03T03:14:48.619Z,83.88
2018-09-03T03:15:48.617Z,83.88
2018-09-03T03:16:48.564Z,83.88
2018-09-03T03:17:48.551Z,84.08
2018-09-03T03:18:48.558Z,83.58
2018-09-03T03:19:48.565Z,83.37
2018-09-03T03:20:48.527Z,83.68
2018-09-03T03:21:48.632Z,83.47
2018-09-03T03:22:48.503Z,83.37
2018-09-03T03:23:48.516Z,84.14
2018-09-03T03:24:48.498Z,83.84
2018-09-03T03:25:48.489Z,83.03
2018-09-03T03:26:48.453Z,83.03
2018-09-03T03:27:48.443Z,82.97
2018-09-03T03:28:48.439Z,83.33
2018-09-03T03:29:48.455Z,83.27
2018-09-03T03:30:48.423Z,83.44
2018-09-03T03:31:48.429Z,83.03
2018-09-03T03:32:48.398Z,83.23
2018-09-03T03:33:48.393Z,83.33
2018-09-03T03:34:48.413Z,83.33
2018-09-03T03:35:48.362Z,83.33
2018-09-03T03:36:48.401Z,82.53
2018-09-03T03:37:48.334Z,83.03
2018-09-03T03:38:48.335Z,83.33
2018-09-03T03:39:48.312Z,83.23
2018-09-03T03:40:48.329Z,82.79
2018-09-03T03:41:48.302Z,82.99
2018-09-03T03:42:48.304Z,82.99
2018-09-03T03:43:48.272Z,82.39
2018-09-03T03:44:48.270Z,82.99
2018-09-03T03:45:48.251Z,83.09
2018-09-03T03:46:48.270Z,82.99
2018-09-03T03:47:48.247Z,82.99
2018-09-03T03:48:48.277Z,82.79
2018-09-03T03:49:48.205Z,82.99
2018-09-03T03:50:48.199Z,83.09
2018-09-03T03:51:48.273Z,83.09
2018-09-03T03:52:48.177Z,83.09
2018-09-03T03:53:48.166Z,83.19
2018-09-03T03:54:48.201Z,83.19
2018-09-03T03:55:48.138Z,82.59
2018-09-03T03:56:48.151Z,82.79
2018-09-03T03:57:48.118Z,83.29
2018-09-03T03:58:48.120Z,82.59
2018-09-03T03:59:48.114Z,83.40
2018-09-03T04:00:48.084Z,82.28
2018-09-03T04:01:48.105Z,82.79
2018-09-03T04:02:48.074Z,82.18
2018-09-03T04:03:48.055Z,82.18
2018-09-03T04:04:48.064Z,82.89
2018-09-03T04:05:48.036Z,81.78
2018-09-03T04:06:48.058Z,82.99
2018-09-03T04:07:48.018Z,82.59
2018-09-03T04:08:48.027Z,82.79
2018-09-03T04:09:48.034Z,82.39
2018-09-03T04:10:47.984Z,82.28
2018-09-03T04:11:47.977Z,81.68
2018-09-03T04:12:48.006Z,83.09
2018-09-03T04:13:47.962Z,82.99
2018-09-03T04:14:47.961Z,82.39
2018-09-03T04:15:47.936Z,82.99
2018-09-03T04:16:47.926Z,83.19
2018-09-03T04:17:47.915Z,82.99
2018-09-03T04:18:48.025Z,83.09
2018-09-03T04:19:47.889Z,83.19
2018-09-03T04:20:47.895Z,83.03
2018-09-03T04:21:47.859Z,83.09
2018-09-03T04:22:47.951Z,83.29
2018-09-03T04:23:47.860Z,82.99
2018-09-03T04:24:47.837Z,83.40
2018-09-03T04:25:47.834Z,83.19
2018-09-03T04:26:47.821Z,83.29
2018-09-03T04:27:47.819Z,82.93
2018-09-03T04:28:47.976Z,83.33
2018-09-03T04:29:47.775Z,83.84
2018-09-03T04:30:47.776Z,83.44
2018-09-03T04:31:47.800Z,83.33
2018-09-03T04:32:47.742Z,83.74
2018-09-03T04:33:47.786Z,83.60
2018-09-03T04:34:47.718Z,83.09
2018-09-03T04:35:47.710Z,83.23
2018-09-03T04:36:47.722Z,83.33
2018-09-03T04:37:47.694Z,83.03
2018-09-03T04:38:47.723Z,83.09
2018-09-03T04:39:47.690Z,82.59
2018-09-03T04:40:47.672Z,82.89
2018-09-03T04:41:47.653Z,83.19
2018-09-03T04:42:47.659Z,83.09
2018-09-03T04:43:47.621Z,82.99
2018-09-03T04:44:47.657Z,82.99
2018-09-03T04:45:47.611Z,82.89
2018-09-03T04:46:47.588Z,82.79
2018-09-03T04:47:47.632Z,82.18
2018-09-03T04:48:47.575Z,82.99
2018-09-03T04:49:47.561Z,83.19
2018-09-03T04:50:47.569Z,82.79
2018-09-03T04:51:47.544Z,83.50
2018-09-03T04:52:47.630Z,82.28
2018-09-03T04:53:47.514Z,82.89
2018-09-03T04:54:47.601Z,83.33
2018-09-03T04:55:47.530Z,82.79
2018-09-03T04:56:47.502Z,82.62
2018-09-03T04:57:47.470Z,83.19
2018-09-03T04:58:47.494Z,82.89
2018-09-03T04:59:47.459Z,83.70
2018-09-03T05:00:54.109Z,82.89
2018-09-03T05:01:47.433Z,83.33
2018-09-03T05:02:47.413Z,83.19
2018-09-03T05:03:47.405Z,83.90
2018-09-03T05:04:47.399Z,83.64
2018-09-03T05:05:47.467Z,83.80
2018-09-03T05:06:47.377Z,83.19
2018-09-03T05:07:47.361Z,82.99
2018-09-03T05:08:47.348Z,83.40
2018-09-03T05:09:47.341Z,83.90
2018-09-03T05:10:47.327Z,84.41
2018-09-03T05:11:47.407Z,84.34
2018-09-03T05:12:47.308Z,83.80
2018-09-03T05:13:47.299Z,83.60
2018-09-03T05:14:47.333Z,83.19
2018-09-03T05:15:47.302Z,85.05
2018-09-03T05:16:47.265Z,84.00
2018-09-03T05:17:47.262Z,83.84
2018-09-03T05:18:47.248Z,83.54
2018-09-03T05:19:47.247Z,83.74
2018-09-03T05:20:47.219Z,83.54
2018-09-03T05:21:47.247Z,83.23
2018-09-03T05:22:47.199Z,85.02
2018-09-03T05:23:47.199Z,83.80
2018-09-03T05:24:47.199Z,83.33
2018-09-03T05:25:47.250Z,82.28
2018-09-03T05:26:47.179Z,83.70
2018-09-03T05:27:47.145Z,83.70
2018-09-03T05:28:47.159Z,83.50
2018-09-03T05:29:47.121Z,83.29
2018-09-03T05:30:47.115Z,83.29
2018-09-03T05:31:47.136Z,83.19
2018-09-03T05:32:47.102Z,83.09
2018-09-03T05:33:47.087Z,82.99
2018-09-03T05:34:47.072Z,83.09
2018-09-03T05:35:47.078Z,83.29
2018-09-03T05:36:47.076Z,83.29
2018-09-03T05:37:47.035Z,83.29
2018-09-03T05:38:47.027Z,82.99
2018-09-03T05:39:47.060Z,83.05
2018-09-03T05:40:47.025Z,82.95
2018-09-03T05:41:47.022Z,82.89
2018-09-03T05:42:47.006Z,82.99
2018-09-03T05:43:47.011Z,83.26
2018-09-03T05:44:46.961Z,83.05
2018-09-03T05:45:46.975Z,82.89
2018-09-03T05:46:46.961Z,82.75
2018-09-03T05:47:46.959Z,82.65
2018-09-03T05:48:46.949Z,82.95
2018-09-03T05:49:46.914Z,83.36
2018-09-03T05:50:46.976Z,83.66
2018-09-03T05:51:46.884Z,83.26
2018-09-03T05:52:46.900Z,82.85
2018-09-03T05:53:46.905Z,83.56
2018-09-03T05:54:46.849Z,83.26
2018-09-03T05:55:46.845Z,83.26
2018-09-03T05:56:46.831Z,82.95
2018-09-03T05:57:46.853Z,82.75
2018-09-03T05:58:46.811Z,83.05
2018-09-03T05:59:46.816Z,82.41
2018-09-03T06:00:46.792Z,82.61
2018-09-03T06:01:46.776Z,82.71
2018-09-03T06:02:46.767Z,83.12
2018-09-03T06:03:46.779Z,83.01
2018-09-03T06:04:46.783Z,82.78
2018-09-03T06:05:46.737Z,82.91
2018-09-03T06:06:46.724Z,82.87
2018-09-03T06:07:46.756Z,83.18
2018-09-03T06:08:46.702Z,82.47
2018-09-03T06:09:46.698Z,81.05
2018-09-03T06:10:46.681Z,81.46
2018-09-03T06:11:46.702Z,81.26
2018-09-03T06:12:46.723Z,80.45
2018-09-03T06:13:46.677Z,81.16
2018-09-03T06:14:46.642Z,81.26
2018-09-03T06:15:46.644Z,81.56
2018-09-03T06:16:46.614Z,80.96
2018-09-03T06:17:46.614Z,81.22
2018-09-03T06:18:46.623Z,81.02
2018-09-03T06:19:46.588Z,81.12
2018-09-03T06:20:46.588Z,80.62
2018-09-03T06:21:46.590Z,79.16
2018-09-03T06:22:46.557Z,79.61
2018-09-03T06:23:46.589Z,79.47
2018-09-03T06:24:46.531Z,79.36
2018-09-03T06:25:46.535Z,79.57
2018-09-03T06:26:46.587Z,79.16
2018-09-03T06:27:46.498Z,79.67
2018-09-03T06:28:46.564Z,78.96
2018-09-03T06:29:46.513Z,78.86
2018-09-03T06:30:46.507Z,78.26
2018-09-03T06:31:46.469Z,78.22
2018-09-03T06:32:46.498Z,77.82
2018-09-03T06:33:46.444Z,77.72
2018-09-03T06:34:46.530Z,78.72
2018-09-03T06:35:46.457Z,79.43
2018-09-03T06:36:46.437Z,77.82
2018-09-03T06:37:46.399Z,77.82
2018-09-03T06:38:46.396Z,76.71
2018-09-03T06:39:46.404Z,77.78
2018-09-03T06:40:46.366Z,77.78
2018-09-03T06:41:46.352Z,76.77
2018-09-03T06:42:46.339Z,76.97
2018-09-03T06:43:46.336Z,76.77
2018-09-03T06:44:46.368Z,77.08
2018-09-03T06:45:46.348Z,76.87
2018-09-03T06:46:46.304Z,77.34
2018-09-03T06:47:46.340Z,76.94
2018-09-03T06:48:46.280Z,76.64
2018-09-03T06:49:46.279Z,76.34
2018-09-03T06:50:46.287Z,75.59
2018-09-03T06:51:46.252Z,76.20
2018-09-03T06:52:46.248Z,75.49
2018-09-03T06:53:46.251Z,75.29
2018-09-03T06:54:46.260Z,74.69
2018-09-03T06:55:46.221Z,75.09
2018-09-03T06:56:46.196Z,75.49
2018-09-03T06:57:46.198Z,75.29
2018-09-03T06:58:46.166Z,75.39
2018-09-03T06:59:46.156Z,75.79
2018-09-03T07:00:46.171Z,74.79
2018-09-03T07:01:46.136Z,74.79
2018-09-03T07:02:46.122Z,74.89
2018-09-03T07:03:46.109Z,74.49
2018-09-03T07:04:46.104Z,75.05
2018-09-03T07:05:46.132Z,74.65
2018-09-03T07:06:46.148Z,75.35
2018-09-03T07:07:46.078Z,74.35
2018-09-03T07:08:46.065Z,74.75
2018-09-03T07:09:46.046Z,75.22
2018-09-03T07:10:46.036Z,75.32
2018-09-03T07:11:46.051Z,73.81
2018-09-03T07:12:46.014Z,74.82
2018-09-03T07:13:46.011Z,74.21
2018-09-03T07:14:45.991Z,74.62
2018-09-03T07:15:45.988Z,74.21
2018-09-03T07:16:45.993Z,74.41
2018-09-03T07:17:45.956Z,74.62
2018-09-03T07:18:46.008Z,74.48
2018-09-03T07:19:45.934Z,74.18
2018-09-03T07:20:45.965Z,73.68
2018-09-03T07:21:45.944Z,73.94
2018-09-03T07:22:45.908Z,73.34
2018-09-03T07:23:45.897Z,72.84
2018-09-03T07:24:45.891Z,73.54
2018-09-03T07:25:45.909Z,73.74
2018-09-03T07:26:45.864Z,72.30
2018-09-03T07:27:45.878Z,72.74
2018-09-03T07:28:45.891Z,71.83
2018-09-03T07:29:45.830Z,71.83
2018-09-03T07:30:45.819Z,71.53
2018-09-03T07:31:45.804Z,71.73
2018-09-03T07:32:45.823Z,71.94
2018-09-03T07:33:45.783Z,72.13
2018-09-03T07:34:45.785Z,71.53
2018-09-03T07:35:45.761Z,71.94
2018-09-03T07:36:45.758Z,71.73
2018-09-03T07:37:45.762Z,72.27
2018-09-03T07:38:45.727Z,71.87
2018-09-03T07:39:45.716Z,72.87
2018-09-03T07:40:45.708Z,72.27
2018-09-03T07:41:45.737Z,72.27
2018-09-03T07:42:45.711Z,72.67
2018-09-03T07:43:45.675Z,72.77
2018-09-03T07:44:45.668Z,73.27
2018-09-03T07:45:45.654Z,72.30
2018-09-03T07:46:45.679Z,72.71
2018-09-03T07:47:45.657Z,72.87
2018-09-03T07:48:45.641Z,72.07
2018-09-03T07:49:45.628Z,72.17
2018-09-03T07:50:45.598Z,72.17
2018-09-03T07:51:45.586Z,72.47
2018-09-03T07:52:45.628Z,72.47
2018-09-03T07:53:45.577Z,71.47
2018-09-03T07:54:45.556Z,72.27
2018-09-03T07:55:45.546Z,72.47
2018-09-03T07:56:45.533Z,72.17
2018-09-03T07:57:45.530Z,71.97
2018-09-03T07:58:45.537Z,71.87
2018-09-03T07:59:45.507Z,71.53
2018-09-03T08:00:45.491Z,72.03
2018-09-03T08:01:45.481Z,72.24
2018-09-03T08:02:45.479Z,71.43
2018-09-03T08:03:45.487Z,71.09
2018-09-03T08:04:45.454Z,71.30
2018-09-03T08:05:45.440Z,70.50
2018-09-03T08:06:45.426Z,69.79
2018-09-03T08:07:45.419Z,70.56
2018-09-03T08:08:45.439Z,69.59
2018-09-03T08:09:45.410Z,71.30
2018-09-03T08:10:45.391Z,70.29
2018-09-03T08:11:45.378Z,70.39
2018-09-03T08:12:45.369Z,70.39
2018-09-03T08:13:45.362Z,71.30
2018-09-03T08:14:45.368Z,70.59
2018-09-03T08:15:45.341Z,70.36
2018-09-03T08:16:45.330Z,71.47
2018-09-03T08:17:45.312Z,70.16
2018-09-03T08:18:45.321Z,70.06
2018-09-03T08:19:45.328Z,70.06
2018-09-03T08:20:45.290Z,68.95
2018-09-03T08:21:45.350Z,70.16
2018-09-03T08:22:45.259Z,69.15
2018-09-03T08:23:45.252Z,69.06
2018-09-03T08:24:45.240Z,69.35
2018-09-03T08:25:45.264Z,70.03
2018-09-03T08:26:45.215Z,69.82
2018-09-03T08:27:45.211Z,69.22
2018-09-03T08:28:45.193Z,68.52
2018-09-03T08:29:45.186Z,69.12
2018-09-03T08:30:45.196Z,68.62
2018-09-03T08:31:45.166Z,69.69
2018-09-03T08:32:45.159Z,70.03
2018-09-03T08:33:45.142Z,69.92
2018-09-03T08:34:45.138Z,69.39
2018-09-03T08:35:45.162Z,68.79
2018-09-03T08:36:45.174Z,67.88
2018-09-03T08:37:45.098Z,67.76
2018-09-03T08:38:45.088Z,66.85
2018-09-03T08:39:45.080Z,66.62
2018-09-03T08:40:45.078Z,65.62
2018-09-03T08:41:45.084Z,66.42
2018-09-03T08:42:45.042Z,66.52
2018-09-03T08:43:45.030Z,65.48
2018-09-03T08:44:45.028Z,66.39
2018-09-03T08:45:45.022Z,66.59
2018-09-03T08:46:45.023Z,65.69
2018-09-03T08:47:44.997Z,64.98
2018-09-03T08:48:45.016Z,66.02
2018-09-03T08:49:44.968Z,66.12
2018-09-03T08:50:44.968Z,66.62
2018-09-03T08:51:44.978Z,66.72
2018-09-03T08:52:44.940Z,65.92
2018-09-03T08:53:44.929Z,66.12
2018-09-03T08:54:44.916Z,66.28
2018-09-03T08:55:44.911Z,66.19
2018-09-03T08:56:44.939Z,66.39
2018-09-03T08:57:44.909Z,66.09
2018-09-03T08:58:44.899Z,67.52
2018-09-03T08:59:44.859Z,66.62
2018-09-03T09:00:44.856Z,67.12
2018-09-03T09:01:44.860Z,66.92
2018-09-03T09:02:44.880Z,66.55
2018-09-03T09:03:44.819Z,67.65
2018-09-03T09:04:44.816Z,68.26
2018-09-03T09:05:44.824Z,68.26
2018-09-03T09:06:44.789Z,68.65
2018-09-03T09:07:44.810Z,68.26
2018-09-03T09:08:44.770Z,68.55
2018-09-03T09:09:44.754Z,68.05
2018-09-03T09:10:44.765Z,68.55
2018-09-03T09:11:44.756Z,67.25
2018-09-03T09:12:44.749Z,67.85
2018-09-03T09:13:44.711Z,68.26
2018-09-03T09:14:44.716Z,68.26
2018-09-03T09:15:44.694Z,68.15
2018-09-03T09:16:44.691Z,68.62
2018-09-03T09:17:44.675Z,68.46
2018-09-03T09:18:44.680Z,68.35
2018-09-03T09:19:44.655Z,67.42
2018-09-03T09:20:44.637Z,67.45
2018-09-03T09:21:44.628Z,67.12
2018-09-03T09:22:44.620Z,66.92
2018-09-03T09:23:44.632Z,66.92
2018-09-03T09:24:44.626Z,67.22
2018-09-03T09:25:44.583Z,66.89
2018-09-03T09:26:44.574Z,66.19
2018-09-03T09:27:44.559Z,66.78
2018-09-03T09:28:44.579Z,65.69
2018-09-03T09:29:44.571Z,65.45
2018-09-03T09:30:44.525Z,65.95
2018-09-03T09:31:44.514Z,65.36
2018-09-03T09:32:44.513Z,65.25
2018-09-03T09:33:44.520Z,65.62
2018-09-03T09:34:44.504Z,64.72
2018-09-03T09:35:44.514Z,64.72
2018-09-03T09:36:44.536Z,64.52
2018-09-03T09:37:44.466Z,64.42
2018-09-03T09:38:44.479Z,64.42
2018-09-03T09:39:44.439Z,63.62
2018-09-03T09:40:44.444Z,64.03
2018-09-03T09:41:44.411Z,63.82
2018-09-03T09:42:44.415Z,63.32
2018-09-03T09:43:44.429Z,63.42
2018-09-03T09:44:44.377Z,63.69
2018-09-03T09:45:44.371Z,63.59
2018-09-03T09:46:44.360Z,63.19
2018-09-03T09:47:44.350Z,63.69
2018-09-03T09:48:44.336Z,62.66
2018-09-03T09:49:44.397Z,62.46
2018-09-03T09:50:44.320Z,62.82
2018-09-03T09:51:44.303Z,63.09
2018-09-03T09:52:44.296Z,63.49
2018-09-03T09:53:44.284Z,62.96
2018-09-03T09:54:44.369Z,62.76
2018-09-03T09:55:44.262Z,62.23
2018-09-03T09:56:44.260Z,62.93
2018-09-03T09:57:44.252Z,62.81
2018-09-03T09:58:44.230Z,61.71
2018-09-03T09:59:44.221Z,61.00
2018-09-03T10:00:44.233Z,60.31
2018-09-03T10:01:44.196Z,61.60
2018-09-03T10:02:44.197Z,62.20
2018-09-03T10:03:44.288Z,62.83
2018-09-03T10:04:44.165Z,61.93
2018-09-03T10:05:44.180Z,62.37
2018-09-03T10:06:44.162Z,62.56
2018-09-03T10:07:44.133Z,62.96
2018-09-03T10:08:44.129Z,62.59
2018-09-03T10:09:44.123Z,62.99
2018-09-03T10:10:44.148Z,63.49
2018-09-03T10:11:44.102Z,62.99
2018-09-03T10:12:44.083Z,62.79
2018-09-03T10:13:44.092Z,64.19
2018-09-03T10:14:44.061Z,63.79
2018-09-03T10:15:44.055Z,63.09
2018-09-03T10:16:44.068Z,62.99
2018-09-03T10:17:44.035Z,63.17
2018-09-03T10:18:44.019Z,63.66
2018-09-03T10:19:44.007Z,62.66
2018-09-03T10:20:44.026Z,62.76
2018-09-03T10:21:44.017Z,62.46
2018-09-03T10:22:43.988Z,62.10
2018-09-03T10:23:43.966Z,62.81
2018-09-03T10:24:43.978Z,62.27
2018-09-03T10:25:43.954Z,61.25
2018-09-03T10:26:43.989Z,60.95
2018-09-03T10:27:43.931Z,60.85
2018-09-03T10:28:43.937Z,60.45
2018-09-03T10:29:43.900Z,60.48
2018-09-03T10:30:43.889Z,60.48
2018-09-03T10:31:43.904Z,60.17
2018-09-03T10:32:43.897Z,60.91
2018-09-03T10:33:43.858Z,60.58
2018-09-03T10:34:43.869Z,60.28
2018-09-03T10:35:43.838Z,60.38
2018-09-03T10:36:43.828Z,60.28
2018-09-03T10:37:43.844Z,60.50
2018-09-03T10:38:43.806Z,60.61
2018-09-03T10:39:43.836Z,61.57
2018-09-03T10:40:43.785Z,60.68
2018-09-03T10:41:43.778Z,61.27
2018-09-03T10:42:43.784Z,60.88
2018-09-03T10:43:43.763Z,60.85
2018-09-03T10:44:43.750Z,60.35
2018-09-03T10:45:43.732Z,59.85
2018-09-03T10:46:43.726Z,60.25
2018-09-03T10:47:43.835Z,60.55
2018-09-03T10:48:43.700Z,60.58
2018-09-03T10:49:43.687Z,60.28
2018-09-03T10:50:43.674Z,60.48
2018-09-03T10:51:43.667Z,61.51
2018-09-03T10:52:43.663Z,61.80
2018-09-03T10:53:43.694Z,62.10
2018-09-03T10:54:43.634Z,62.23
2018-09-03T10:55:43.677Z,62.30
2018-09-03T10:56:43.614Z,61.41
2018-09-03T10:57:43.612Z,61.80
2018-09-03T10:58:43.667Z,62.20
2018-09-03T10:59:43.580Z,60.17
2018-09-03T11:00:43.573Z,60.48
2018-09-03T11:01:43.569Z,60.75
2018-09-03T11:02:43.574Z,60.55
2018-09-03T11:03:43.562Z,59.55
2018-09-03T11:04:43.573Z,60.55
2018-09-03T11:05:43.516Z,61.25
2018-09-03T11:06:43.508Z,60.35
2018-09-03T11:07:43.516Z,59.72
2018-09-03T11:08:43.491Z,59.82
2018-09-03T11:09:43.503Z,59.89
2018-09-03T11:10:43.470Z,60.26
2018-09-03T11:11:44.179Z,59.47
2018-09-03T11:12:43.453Z,59.06
2018-09-03T11:13:43.435Z,59.17
2018-09-03T11:14:43.452Z,59.36
2018-09-03T11:15:43.410Z,58.07
2018-09-03T11:16:43.397Z,57.67
2018-09-03T11:17:43.391Z,57.77
2018-09-03T11:18:43.377Z,59.77
2018-09-03T11:19:43.413Z,59.44
2018-09-03T11:20:43.374Z,58.74
2018-09-03T11:21:43.441Z,58.01
2018-09-03T11:22:43.340Z,57.62
2018-09-03T11:23:43.340Z,57.35
2018-09-03T11:24:43.346Z,57.67
2018-09-03T11:25:43.308Z,58.37
2018-09-03T11:26:43.312Z,58.67
2018-09-03T11:27:43.286Z,57.57
2018-09-03T11:28:43.334Z,58.20
2018-09-03T11:29:43.341Z,57.90
2018-09-03T11:30:43.282Z,58.59
2018-09-03T11:31:43.250Z,58.42
2018-09-03T11:32:43.237Z,58.92
2018-09-03T11:33:43.237Z,58.59
2018-09-03T11:34:43.239Z,58.59
2018-09-03T11:35:43.211Z,58.70
2018-09-03T11:36:43.196Z,58.57
2018-09-03T11:37:43.185Z,57.60
2018-09-03T11:38:43.167Z,58.23
2018-09-03T11:39:43.202Z,59.09
2018-09-03T11:40:43.197Z,59.09
2018-09-03T11:41:43.159Z,58.83
2018-09-03T11:42:43.148Z,59.09
2018-09-03T11:43:43.114Z,58.07
2018-09-03T11:44:43.142Z,57.77
2018-09-03T11:45:43.101Z,58.44
2018-09-03T11:46:43.100Z,58.78
2018-09-03T11:47:43.075Z,56.67
2018-09-03T11:48:43.144Z,56.57
2018-09-03T11:49:43.053Z,55.97
2018-09-03T11:50:43.075Z,55.67
2018-09-03T11:51:43.093Z,56.57
2018-09-03T11:52:43.030Z,55.70
2018-09-03T11:53:43.039Z,55.73
2018-09-03T11:54:43.096Z,56.12
2018-09-03T11:55:42.989Z,56.79
2018-09-03T11:56:43.011Z,56.10
2018-09-03T11:57:42.975Z,56.10
2018-09-03T11:58:42.960Z,56.49
2018-09-03T11:59:42.981Z,55.60
2018-09-03T12:00:42.970Z,56.30
2018-09-03T12:01:42.929Z,55.60
2018-09-03T12:02:42.945Z,56.40
2018-09-03T12:03:42.903Z,55.90
2018-09-03T12:04:42.893Z,55.87
2018-09-03T12:05:42.927Z,55.87
2018-09-03T12:06:43.005Z,56.17
2018-09-03T12:07:42.863Z,55.97
2018-09-03T12:08:42.855Z,55.87
2018-09-03T12:09:42.844Z,56.07
2018-09-03T12:10:42.876Z,55.77
2018-09-03T12:11:42.820Z,56.44
2018-09-03T12:12:42.812Z,55.65
2018-09-03T12:13:42.826Z,54.97
2018-09-03T12:14:42.786Z,55.47
2018-09-03T12:15:42.838Z,54.85
2018-09-03T12:16:42.768Z,55.38
2018-09-03T12:17:42.756Z,54.38
2018-09-03T12:18:42.774Z,55.18
2018-09-03T12:19:42.754Z,56.87
2018-09-03T12:20:42.765Z,54.95
2018-09-03T12:21:42.739Z,55.87
2018-09-03T12:22:42.712Z,55.87
2018-09-03T12:23:42.708Z,56.14
2018-09-03T12:24:42.692Z,56.27
2018-09-03T12:25:42.701Z,56.04
2018-09-03T12:26:42.661Z,55.85
2018-09-03T12:27:42.753Z,56.04
2018-09-03T12:28:42.675Z,55.05
2018-09-03T12:29:42.696Z,55.74
2018-09-03T12:30:42.666Z,54.35
2018-09-03T12:31:42.615Z,55.52
2018-09-03T12:32:42.614Z,54.35
2018-09-03T12:33:42.593Z,55.65
2018-09-03T12:34:42.588Z,55.94
2018-09-03T12:35:42.689Z,55.65
2018-09-03T12:36:42.574Z,55.25
2018-09-03T12:37:42.608Z,54.97
2018-09-03T12:38:42.543Z,55.90
2018-09-03T12:39:42.593Z,55.97
2018-09-03T12:40:42.587Z,56.67
2018-09-03T12:41:42.502Z,55.80
2018-09-03T12:42:42.571Z,55.57
2018-09-03T12:43:42.530Z,55.57
2018-09-03T12:44:42.476Z,56.37
2018-09-03T12:45:42.461Z,56.57
2018-09-03T12:46:45.302Z,56.37
2018-09-03T12:47:42.480Z,56.57
2018-09-03T12:48:42.440Z,56.17
2018-09-03T12:49:42.427Z,56.57
2018-09-03T12:50:42.416Z,56.44
2018-09-03T12:51:42.454Z,55.65
2018-09-03T12:52:42.393Z,56.04